createdAt,value
2018-11-05T00:00:13.890Z,81.80
2018-11-05T00:02:41.594Z,75.10
2018-11-05T00:05:09.262Z,76.10
2018-11-05T00:07:36.876Z,86.20
2018-11-05T00:10:04.793Z,86.80
2018-11-05T00:12:32.506Z,81.50
2018-11-05T00:15:00.109Z,70.20
2018-11-05T00:17:27.764Z,68.50
2018-11-05T00:19:55.326Z,77.90
2018-11-05T00:22:22.906Z,80.20
2018-11-05T00:24:50.485Z,74.90
2018-11-05T00:27:18.063Z,75.00
2018-11-05T00:29:45.620Z,79.60
2018-11-05T00:32:13.195Z,78.00
2018-11-05T00:34:40.773Z,75.40
2018-11-05T00:37:08.351Z,74.80
2018-11-05T00:39:35.985Z,65.20
2018-11-05T00:42:03.622Z,67.00
2018-11-05T00:44:31.279Z,75.60
2018-11-05T00:46:58.840Z,68.60
2018-11-05T00:49:26.404Z,71.80
2018-11-05T00:51:53.990Z,74.90
2018-11-05T00:54:21.957Z,72.70
2018-11-05T00:56:49.520Z,73.90
2018-11-05T00:59:17.127Z,82.70
2018-11-05T01:01:44.773Z,79.50
2018-11-05T01:04:12.411Z,67.50
2018-11-05T01:06:40.001Z,75.50
2018-11-05T01:09:08.050Z,79.40
2018-11-05T01:11:36.071Z,77.40
2018-11-05T01:14:03.646Z,68.70
2018-11-05T01:16:31.195Z,78.10
2018-11-05T01:18:58.761Z,78.10
2018-11-05T01:21:26.346Z,77.00
2018-11-05T01:23:53.914Z,75.20
2018-11-05T01:26:21.491Z,74.30
2018-11-05T01:28:49.088Z,72.80
2018-11-05T01:31:16.669Z,69.80
2018-11-05T01:33:44.235Z,60.80
2018-11-05T01:36:11.796Z,65.30
2018-11-05T01:38:39.432Z,73.50
2018-11-05T01:41:06.966Z,71.50
2018-11-05T01:43:34.591Z,84.30
2018-11-05T01:46:02.171Z,82.20
2018-11-05T01:48:29.788Z,69.50
2018-11-05T01:50:57.363Z,72.20
2018-11-05T01:53:25.027Z,85.70
2018-11-05T01:55:52.550Z,80.00
2018-11-05T01:58:20.119Z,71.70
2018-11-05T02:00:47.722Z,71.60
2018-11-05T02:03:15.346Z,81.50
2018-11-05T02:05:42.884Z,78.30
2018-11-05T02:08:10.546Z,81.20
2018-11-05T02:10:38.162Z,68.70
2018-11-05T02:13:05.871Z,69.50
2018-11-05T02:15:33.445Z,73.60
2018-11-05T02:18:01.032Z,83.60
2018-11-05T02:20:28.617Z,80.30
2018-11-05T02:22:56.181Z,76.30
2018-11-05T02:25:23.786Z,74.50
2018-11-05T02:27:51.329Z,63.00
2018-11-05T02:30:19.165Z,71.00
2018-11-05T02:32:47.223Z,68.80
2018-11-05T02:35:15.823Z,71.70
2018-11-05T02:37:44.071Z,74.20
2018-11-05T02:40:12.999Z,65.30
2018-11-05T02:42:41.270Z,71.10
2018-11-05T02:45:10.394Z,69.30
2018-11-05T02:47:37.955Z,68.60
2018-11-05T02:50:06.682Z,72.90
2018-11-05T02:52:34.280Z,73.30
2018-11-05T02:55:01.882Z,67.50
2018-11-05T02:57:29.464Z,68.80
2018-11-05T02:59:57.031Z,71.30
2018-11-05T03:02:24.639Z,72.50
2018-11-05T03:04:52.198Z,86.30
2018-11-05T03:07:19.922Z,81.00
2018-11-05T03:09:47.523Z,66.70
2018-11-05T03:12:15.118Z,67.90
2018-11-05T03:14:42.671Z,77.30
2018-11-05T03:17:10.277Z,75.70
2018-11-05T03:19:37.830Z,72.90
2018-11-05T03:22:05.615Z,75.40
2018-11-05T03:24:33.306Z,83.10
2018-11-05T03:27:00.866Z,83.40
2018-11-05T03:29:28.429Z,72.80
2018-11-05T03:31:56.021Z,75.00
2018-11-05T03:34:23.654Z,76.20
2018-11-05T03:36:51.338Z,74.70
2018-11-05T03:39:18.943Z,74.30
2018-11-05T03:41:46.499Z,73.60
2018-11-05T03:44:15.081Z,73.10
2018-11-05T03:46:42.598Z,63.40
2018-11-05T03:49:10.369Z,66.20
2018-11-05T03:51:37.962Z,70.20
2018-11-05T03:54:06.202Z,82.20
2018-11-05T03:56:33.818Z,77.00
2018-11-05T03:59:01.488Z,74.10
2018-11-05T04:01:29.075Z,68.00
2018-11-05T04:03:56.659Z,68.80
2018-11-05T04:06:24.334Z,82.50
2018-11-05T04:08:51.949Z,70.00
2018-11-05T04:11:19.591Z,76.20
2018-11-05T04:13:47.227Z,84.90
2018-11-05T04:16:14.794Z,79.40
2018-11-05T04:18:42.368Z,67.90
2018-11-05T04:21:09.959Z,80.40
2018-11-05T04:23:37.634Z,78.90
2018-11-05T04:26:05.268Z,75.80
2018-11-05T04:28:32.826Z,68.40
2018-11-05T04:31:00.377Z,63.40
2018-11-05T04:33:27.962Z,66.70
2018-11-05T04:35:55.518Z,70.70
2018-11-05T04:38:23.062Z,75.90
2018-11-05T04:40:50.634Z,87.40
2018-11-05T04:43:18.246Z,72.70
2018-11-05T04:45:45.802Z,70.60
2018-11-05T04:48:13.349Z,71.30
2018-11-05T04:50:40.899Z,74.60
2018-11-05T04:53:08.500Z,90.30
2018-11-05T04:55:36.070Z,86.80
2018-11-05T04:58:03.702Z,71.80
2018-11-05T05:00:31.419Z,70.10
2018-11-05T05:02:58.982Z,73.80
2018-11-05T05:05:26.582Z,76.30
2018-11-05T05:07:54.215Z,90.90
2018-11-05T05:10:21.802Z,87.90
2018-11-05T05:12:49.507Z,81.70
2018-11-05T05:15:17.061Z,78.60
2018-11-05T05:17:44.622Z,75.70
2018-11-05T05:20:14.276Z,70.10
2018-11-05T05:22:42.276Z,63.60
2018-11-05T05:25:09.797Z,67.20
2018-11-05T05:27:37.366Z,71.30
2018-11-05T05:30:11.471Z,74.60
2018-11-05T05:32:39.033Z,78.10
2018-11-05T05:35:06.658Z,78.20
2018-11-05T05:37:34.189Z,75.40
2018-11-05T05:40:01.750Z,77.60
2018-11-05T05:42:29.329Z,76.70
2018-11-05T05:44:56.958Z,77.30
2018-11-05T05:47:24.567Z,78.90
2018-11-05T05:49:52.163Z,78.90
2018-11-05T05:52:19.807Z,78.50
2018-11-05T05:54:47.458Z,80.70
2018-11-05T05:57:15.068Z,81.40
2018-11-05T05:59:42.721Z,81.60
2018-11-05T06:02:10.257Z,84.00
2018-11-05T06:04:37.802Z,86.30
2018-11-05T06:07:05.993Z,87.40
2018-11-05T06:09:33.553Z,87.10
2018-11-05T06:12:01.139Z,85.30
2018-11-05T06:14:28.722Z,86.20
2018-11-05T06:16:56.347Z,87.10
2018-11-05T06:19:23.899Z,88.20
2018-11-05T06:21:51.531Z,88.40
2018-11-05T06:24:19.079Z,89.00
2018-11-05T06:26:46.694Z,88.80
2018-11-05T06:29:14.270Z,88.20
2018-11-05T06:31:42.069Z,88.90
2018-11-05T06:34:10.411Z,89.80
2018-11-05T06:36:38.098Z,96.20
2018-11-05T06:39:08.626Z,82.10
2018-11-05T06:41:36.438Z,91.50
2018-11-05T06:44:04.049Z,90.40
2018-11-05T06:46:31.606Z,85.90
2018-11-05T06:48:59.340Z,73.90
2018-11-05T06:51:27.234Z,70.70
2018-11-05T06:53:54.817Z,72.90
2018-11-05T06:56:22.405Z,74.40
2018-11-05T06:58:50.206Z,74.50
2018-11-05T07:01:17.787Z,74.00
2018-11-05T07:03:45.384Z,76.30
2018-11-05T07:06:12.990Z,78.90
2018-11-05T07:08:40.578Z,82.50
2018-11-05T07:11:08.194Z,76.80
2018-11-05T07:13:35.781Z,76.70
2018-11-05T07:16:03.395Z,76.80
2018-11-05T07:18:31.102Z,78.60
2018-11-05T07:20:58.591Z,77.30
2018-11-05T07:23:26.213Z,79.90
2018-11-05T07:25:53.751Z,81.40
2018-11-05T07:28:21.309Z,85.50
2018-11-05T07:30:48.870Z,83.10
2018-11-05T07:33:16.586Z,83.80
2018-11-05T07:35:44.088Z,84.10
2018-11-05T07:38:12.305Z,86.40
2018-11-05T07:40:39.842Z,85.60
2018-11-05T07:43:07.425Z,85.40
2018-11-05T07:45:35.036Z,85.10
2018-11-05T07:48:02.582Z,82.50
2018-11-05T07:50:30.206Z,85.00
2018-11-05T07:52:57.815Z,84.40
2018-11-05T07:55:25.435Z,81.10
2018-11-05T07:57:53.038Z,80.40
2018-11-05T08:00:26.198Z,78.10
2018-11-05T08:02:55.120Z,82.80
2018-11-05T08:05:23.405Z,78.00
2018-11-05T08:07:51.118Z,76.70
2018-11-05T08:10:18.738Z,90.70
2018-11-05T08:12:46.368Z,78.80
2018-11-05T08:15:15.226Z,74.40
2018-11-05T08:17:44.301Z,74.00
2018-11-05T08:20:11.964Z,82.00
2018-11-05T08:22:39.722Z,83.20
2018-11-05T08:25:09.141Z,79.40
2018-11-05T08:27:37.271Z,74.00
2018-11-05T08:30:07.598Z,76.70
2018-11-05T08:32:36.170Z,74.50
2018-11-05T08:35:03.984Z,72.90
2018-11-05T08:37:31.582Z,71.90
2018-11-05T08:39:59.155Z,71.30
2018-11-05T08:42:29.459Z,66.10
2018-11-05T08:44:57.080Z,70.90
2018-11-05T08:47:24.682Z,71.00
2018-11-05T08:49:52.380Z,69.70
2018-11-05T08:52:20.046Z,69.40
2018-11-05T08:54:47.628Z,61.60
2018-11-05T08:57:15.235Z,65.70
2018-11-05T08:59:42.818Z,61.30
2018-11-05T09:02:10.438Z,62.00
2018-11-05T09:04:38.098Z,62.70
2018-11-05T09:07:05.672Z,62.90
2018-11-05T09:09:33.260Z,65.10
2018-11-05T09:12:00.862Z,65.90
2018-11-05T09:14:28.439Z,68.50
2018-11-05T09:16:56.014Z,70.40
2018-11-05T09:19:23.600Z,71.30
2018-11-05T09:21:51.209Z,70.90
2018-11-05T09:24:18.948Z,72.20
2018-11-05T09:26:46.502Z,72.90
2018-11-05T09:29:14.102Z,77.60
2018-11-05T09:31:41.685Z,81.40
2018-11-05T09:34:09.305Z,69.10
2018-11-05T09:36:36.902Z,68.30
2018-11-05T09:39:06.502Z,68.70
2018-11-05T09:41:34.092Z,70.40
2018-11-05T09:44:01.754Z,71.40
2018-11-05T09:46:29.438Z,79.00
2018-11-05T09:48:57.043Z,76.40
2018-11-05T09:51:24.665Z,72.40
2018-11-05T09:53:52.238Z,69.70
2018-11-05T09:56:19.817Z,63.60
2018-11-05T09:58:47.446Z,64.10
2018-11-05T10:01:15.275Z,68.20
2018-11-05T10:03:48.584Z,68.00
2018-11-05T10:06:16.247Z,67.80
2018-11-05T10:08:44.062Z,67.30
2018-11-05T10:11:11.631Z,67.10
2018-11-05T10:13:39.270Z,66.50
2018-11-05T10:16:06.876Z,68.00
2018-11-05T10:18:34.603Z,68.70
2018-11-05T10:21:02.250Z,67.10
2018-11-05T10:23:29.914Z,66.20
2018-11-05T10:25:57.566Z,66.60
2018-11-05T10:28:25.158Z,66.40
2018-11-05T10:30:52.759Z,67.40
2018-11-05T10:33:20.354Z,66.50
2018-11-05T10:35:56.316Z,66.30
2018-11-05T10:38:24.036Z,66.10
2018-11-05T10:40:51.598Z,65.90
2018-11-05T10:43:19.319Z,66.30
2018-11-05T10:45:46.913Z,66.70
2018-11-05T10:48:14.623Z,66.70
2018-11-05T10:50:42.233Z,65.10
2018-11-05T10:53:09.822Z,64.40
2018-11-05T10:55:37.578Z,63.90
2018-11-05T10:58:05.301Z,65.10
2018-11-05T11:00:38.552Z,63.50
2018-11-05T11:03:11.958Z,62.70
2018-11-05T11:05:39.637Z,59.60
2018-11-05T11:08:07.248Z,58.50
2018-11-05T11:10:34.852Z,56.80
2018-11-05T11:13:02.566Z,51.90
2018-11-05T11:15:30.136Z,45.00
2018-11-05T11:17:58.086Z,44.70
2018-11-05T11:20:25.665Z,47.10
2018-11-05T11:22:53.323Z,43.00
2018-11-05T11:25:21.045Z,37.90
2018-11-05T11:27:48.793Z,34.80
2018-11-05T11:30:16.678Z,34.20
2018-11-05T11:32:45.161Z,37.30
2018-11-05T11:35:13.044Z,41.40
2018-11-05T11:37:40.660Z,44.90
2018-11-05T11:40:11.599Z,48.20
2018-11-05T11:42:40.180Z,49.10
2018-11-05T11:45:08.630Z,50.40
2018-11-05T11:47:36.410Z,52.10
2018-11-05T11:50:05.627Z,51.40
2018-11-05T11:52:33.249Z,51.60
2018-11-05T11:55:00.867Z,51.80
2018-11-05T11:57:28.580Z,52.80
2018-11-05T11:59:56.149Z,53.20
2018-11-05T12:02:23.822Z,53.90
2018-11-05T12:04:51.476Z,53.40
2018-11-05T12:07:19.025Z,53.90
2018-11-05T12:09:46.776Z,55.30
2018-11-05T12:12:14.487Z,56.30
2018-11-05T12:14:42.259Z,57.10
2018-11-05T12:17:09.762Z,56.30
2018-11-05T12:19:37.602Z,56.40
2018-11-05T12:22:05.237Z,56.80
2018-11-05T12:24:32.826Z,57.40
2018-11-05T12:27:00.471Z,57.00
2018-11-05T12:29:28.238Z,56.20
2018-11-05T12:31:55.860Z,55.70
2018-11-05T12:34:23.427Z,55.80
2018-11-05T12:36:51.076Z,56.50
2018-11-05T12:39:18.630Z,57.40
2018-11-05T12:41:46.362Z,56.30
2018-11-05T12:44:13.941Z,57.20
2018-11-05T12:46:41.795Z,55.90
2018-11-05T12:49:09.496Z,55.90
2018-11-05T12:51:37.139Z,54.70
2018-11-05T12:54:04.704Z,55.30
2018-11-05T12:56:32.282Z,54.40
2018-11-05T12:59:00.251Z,52.40
2018-11-05T13:01:28.443Z,51.80
2018-11-05T13:03:56.192Z,50.90
2018-11-05T13:06:23.881Z,52.40
2018-11-05T13:08:51.812Z,54.60
2018-11-05T13:11:19.566Z,55.00
2018-11-05T13:13:47.320Z,55.20
2018-11-05T13:16:14.949Z,55.90
2018-11-05T13:18:42.694Z,56.30
2018-11-05T13:21:10.422Z,57.30
2018-11-05T13:23:42.600Z,58.20
2018-11-05T13:26:10.945Z,58.30
2018-11-05T13:28:38.876Z,58.10
2018-11-05T13:31:06.539Z,59.00
2018-11-05T13:33:34.319Z,59.20
2018-11-05T13:36:02.038Z,58.20
2018-11-05T13:38:29.625Z,58.00
2018-11-05T13:40:57.310Z,59.10
2018-11-05T13:43:24.916Z,59.50
2018-11-05T13:45:52.767Z,60.30
2018-11-05T13:48:20.484Z,59.40
2018-11-05T13:50:47.742Z,59.10
2018-11-05T13:53:15.514Z,59.00
2018-11-05T13:55:43.138Z,60.80
2018-11-05T13:58:10.833Z,60.00
2018-11-05T14:00:38.466Z,59.80
2018-11-05T14:03:06.135Z,60.20
2018-11-05T14:05:33.737Z,61.40
2018-11-05T14:08:01.325Z,62.20
2018-11-05T14:10:28.893Z,62.80
2018-11-05T14:12:56.566Z,62.20
2018-11-05T14:15:24.208Z,62.40
2018-11-05T14:17:51.822Z,62.60
2018-11-05T14:20:20.034Z,62.60
2018-11-05T14:22:47.688Z,62.40
2018-11-05T14:25:16.674Z,62.50
2018-11-05T14:27:45.750Z,62.80
2018-11-05T14:30:13.670Z,62.30
2018-11-05T14:32:42.631Z,62.90
2018-11-05T14:35:10.303Z,63.00
2018-11-05T14:37:37.959Z,62.70
2018-11-05T14:40:07.634Z,62.50
2018-11-05T14:42:35.689Z,62.70
2018-11-05T14:45:03.464Z,63.10
2018-11-05T14:47:31.174Z,63.10
2018-11-05T14:49:58.853Z,63.50
2018-11-05T14:52:26.602Z,63.70
2018-11-05T14:54:54.249Z,63.80
2018-11-05T14:57:21.879Z,63.90
2018-11-05T14:59:49.395Z,64.00
2018-11-05T15:02:22.771Z,64.20
2018-11-05T15:04:50.370Z,64.40
2018-11-05T15:07:18.043Z,64.40
2018-11-05T15:09:45.790Z,64.60
2018-11-05T15:12:13.354Z,64.70
2018-11-05T15:14:40.934Z,64.90
2018-11-05T15:17:08.542Z,64.90
2018-11-05T15:19:36.700Z,64.90
2018-11-05T15:22:03.922Z,65.20
2018-11-05T15:24:31.487Z,65.60
2018-11-05T15:26:59.296Z,66.00
2018-11-05T15:29:26.694Z,66.30
2018-11-05T15:31:54.351Z,66.30
2018-11-05T15:34:21.999Z,66.10
2018-11-05T15:36:49.594Z,66.30
2018-11-05T15:39:17.218Z,66.40
2018-11-05T15:41:44.823Z,67.00
2018-11-05T15:44:12.486Z,66.90
2018-11-05T15:46:40.079Z,66.90
2018-11-05T15:49:07.830Z,67.60
2018-11-05T15:51:35.640Z,67.20
2018-11-05T15:54:03.147Z,67.20
2018-11-05T15:56:30.701Z,67.40
2018-11-05T15:58:58.255Z,67.50
2018-11-05T16:01:25.989Z,67.80
2018-11-05T16:03:53.633Z,67.80
2018-11-05T16:06:21.233Z,68.10
2018-11-05T16:08:48.838Z,68.20
2018-11-05T16:11:16.527Z,68.20
2018-11-05T16:13:44.198Z,68.80
2018-11-05T16:16:11.749Z,69.20
2018-11-05T16:18:39.519Z,68.60
2018-11-05T16:21:07.186Z,68.30
2018-11-05T16:23:34.930Z,68.20
2018-11-05T16:26:02.505Z,68.20
2018-11-05T16:28:30.079Z,68.60
2018-11-05T16:30:57.635Z,69.70
2018-11-05T16:33:25.266Z,68.90
2018-11-05T16:35:52.839Z,70.30
2018-11-05T16:38:20.513Z,69.80
2018-11-05T16:40:48.058Z,70.00
2018-11-05T16:43:15.619Z,69.00
2018-11-05T16:45:43.354Z,68.30
2018-11-05T16:48:10.840Z,68.50
2018-11-05T16:50:38.397Z,68.00
2018-11-05T16:53:06.065Z,68.00
2018-11-05T16:55:33.710Z,68.70
2018-11-05T16:58:01.471Z,69.00
2018-11-05T17:00:29.120Z,70.00
2018-11-05T17:02:56.704Z,69.00
2018-11-05T17:05:24.629Z,68.80
2018-11-05T17:07:52.290Z,69.00
2018-11-05T17:10:19.945Z,69.30
2018-11-05T17:12:47.552Z,70.30
2018-11-05T17:15:15.935Z,69.50
2018-11-05T17:17:43.884Z,68.70
2018-11-05T17:20:15.562Z,69.20
2018-11-05T17:22:43.704Z,69.60
2018-11-05T17:25:11.909Z,71.20
2018-11-05T17:27:39.634Z,70.40
2018-11-05T17:30:09.523Z,69.80
2018-11-05T17:32:37.128Z,71.10
2018-11-05T17:35:05.271Z,69.90
2018-11-05T17:37:32.858Z,69.20
2018-11-05T17:40:00.567Z,70.10
2018-11-05T17:42:28.150Z,70.60
2018-11-05T17:44:55.739Z,70.10
2018-11-05T17:47:23.328Z,70.00
2018-11-05T17:49:50.881Z,72.10
2018-11-05T17:52:18.524Z,70.90
2018-11-05T17:54:46.096Z,70.90
2018-11-05T17:57:13.714Z,70.70
2018-11-05T17:59:41.282Z,70.30
2018-11-05T18:02:13.551Z,70.70
2018-11-05T18:04:41.215Z,70.60
2018-11-05T18:07:08.823Z,71.00
2018-11-05T18:09:36.398Z,70.50
2018-11-05T18:12:04.253Z,71.30
2018-11-05T18:14:31.851Z,71.80
2018-11-05T18:16:59.467Z,70.30
2018-11-05T18:19:27.020Z,71.10
2018-11-05T18:21:54.634Z,71.10
2018-11-05T18:24:22.407Z,72.70
2018-11-05T18:26:49.947Z,72.10
2018-11-05T18:29:17.568Z,72.70
2018-11-05T18:31:45.171Z,71.10
2018-11-05T18:34:12.788Z,71.10
2018-11-05T18:36:40.452Z,71.20
2018-11-05T18:39:08.954Z,71.10
2018-11-05T18:41:36.687Z,72.00
2018-11-05T18:44:04.474Z,71.80
2018-11-05T18:46:32.090Z,70.70
2018-11-05T18:48:59.764Z,72.40
2018-11-05T18:51:27.477Z,72.80
2018-11-05T18:53:55.145Z,71.80
2018-11-05T18:56:22.796Z,70.60
2018-11-05T18:58:50.441Z,72.80
2018-11-05T19:01:18.128Z,72.20
2018-11-05T19:03:45.883Z,74.90
2018-11-05T19:06:13.501Z,73.60
2018-11-05T19:08:41.210Z,72.20
2018-11-05T19:11:08.842Z,72.10
2018-11-05T19:13:36.514Z,72.80
2018-11-05T19:16:04.497Z,71.50
2018-11-05T19:18:32.108Z,71.10
2018-11-05T19:20:59.780Z,73.60
2018-11-05T19:23:27.512Z,73.40
2018-11-05T19:25:55.156Z,73.80
2018-11-05T19:28:22.901Z,73.90
2018-11-05T19:30:50.550Z,72.80
2018-11-05T19:33:18.244Z,73.90
2018-11-05T19:35:45.911Z,72.80
2018-11-05T19:38:13.648Z,73.50
2018-11-05T19:40:41.347Z,73.70
2018-11-05T19:43:09.136Z,73.60
2018-11-05T19:45:36.753Z,73.10
2018-11-05T19:48:04.746Z,72.40
2018-11-05T19:50:32.421Z,72.40
2018-11-05T19:53:00.418Z,72.20
2018-11-05T19:55:28.154Z,72.40
2018-11-05T19:57:55.839Z,72.50
2018-11-05T20:00:25.792Z,74.80
2018-11-05T20:02:53.921Z,73.10
2018-11-05T20:05:21.611Z,75.20
2018-11-05T20:07:50.043Z,76.30
2018-11-05T20:10:17.693Z,75.00
2018-11-05T20:12:45.692Z,74.60
2018-11-05T20:15:13.456Z,72.40
2018-11-05T20:17:41.811Z,72.80
2018-11-05T20:20:10.973Z,76.00
2018-11-05T20:22:38.711Z,76.30
2018-11-05T20:25:07.111Z,75.90
2018-11-05T20:27:35.291Z,74.30
2018-11-05T20:30:03.004Z,73.70
2018-11-05T20:32:31.072Z,74.50
2018-11-05T20:34:58.601Z,74.10
2018-11-05T20:37:26.572Z,73.80
2018-11-05T20:39:54.291Z,74.70
2018-11-05T20:42:21.863Z,75.30
2018-11-05T20:44:49.590Z,75.30
2018-11-05T20:47:17.222Z,74.40
2018-11-05T20:49:44.846Z,74.10
2018-11-05T20:52:12.452Z,73.10
2018-11-05T20:54:40.090Z,72.40
2018-11-05T20:57:07.711Z,73.50
2018-11-05T20:59:35.398Z,74.70
2018-11-05T21:02:03.147Z,73.00
2018-11-05T21:04:30.778Z,70.80
2018-11-05T21:06:58.396Z,84.50
2018-11-05T21:09:25.977Z,83.60
2018-11-05T21:11:54.508Z,81.60
2018-11-05T21:14:22.231Z,75.40
2018-11-05T21:16:49.878Z,71.50
2018-11-05T21:19:17.496Z,69.00
2018-11-05T21:21:45.198Z,71.40
2018-11-05T21:24:12.839Z,78.90
2018-11-05T21:26:40.471Z,75.20
2018-11-05T21:29:08.059Z,67.10
2018-11-05T21:31:35.670Z,75.20
2018-11-05T21:34:03.487Z,68.10
2018-11-05T21:36:31.083Z,70.30
2018-11-05T21:38:58.859Z,69.80
2018-11-05T21:41:26.473Z,80.30
2018-11-05T21:43:54.230Z,80.90
2018-11-05T21:46:21.888Z,82.50
2018-11-05T21:48:49.620Z,81.00
2018-11-05T21:51:17.227Z,77.50
2018-11-05T21:53:45.020Z,74.80
2018-11-05T21:56:12.671Z,68.80
2018-11-05T21:58:40.347Z,75.30
2018-11-05T22:01:07.927Z,65.80
2018-11-05T22:03:35.602Z,70.10
2018-11-05T22:06:03.294Z,78.10
2018-11-05T22:08:30.911Z,78.30
2018-11-05T22:10:58.557Z,71.40
2018-11-05T22:13:26.200Z,73.20
2018-11-05T22:15:53.784Z,67.00
2018-11-05T22:18:21.387Z,81.40
2018-11-05T22:20:48.989Z,82.40
2018-11-05T22:23:16.608Z,76.90
2018-11-05T22:25:44.279Z,68.90
2018-11-05T22:28:11.861Z,67.30
2018-11-05T22:30:39.490Z,70.80
2018-11-05T22:33:07.114Z,85.80
2018-11-05T22:35:34.768Z,82.90
2018-11-05T22:38:02.382Z,76.60
2018-11-05T22:40:30.142Z,67.70
2018-11-05T22:42:57.912Z,72.00
2018-11-05T22:45:25.566Z,84.10
2018-11-05T22:47:53.160Z,83.60
2018-11-05T22:50:20.932Z,79.10
2018-11-05T22:52:48.582Z,68.70
2018-11-05T22:55:16.328Z,68.20
2018-11-05T22:57:43.934Z,80.50
2018-11-05T23:00:17.320Z,83.10
2018-11-05T23:02:50.462Z,79.00
2018-11-05T23:05:18.202Z,76.40
2018-11-05T23:07:45.778Z,66.10
2018-11-05T23:10:13.472Z,74.00
2018-11-05T23:12:41.199Z,78.00
2018-11-05T23:15:08.797Z,70.00
2018-11-05T23:17:36.626Z,74.70
2018-11-05T23:20:05.086Z,72.30
2018-11-05T23:22:32.743Z,80.40
2018-11-05T23:25:00.326Z,75.10
2018-11-05T23:27:27.964Z,66.30
2018-11-05T23:29:55.535Z,75.90
2018-11-05T23:32:23.329Z,78.20
2018-11-05T23:34:51.048Z,78.70
2018-11-05T23:37:18.655Z,66.40
2018-11-05T23:39:46.298Z,80.60
2018-11-05T23:42:14.006Z,72.10
2018-11-05T23:44:41.626Z,78.10
2018-11-05T23:47:09.525Z,77.90
2018-11-05T23:49:37.492Z,69.00
2018-11-05T23:52:05.224Z,65.20
2018-11-05T23:54:32.819Z,68.30
2018-11-05T23:57:00.580Z,78.60
2018-11-05T23:59:28.136Z,80.30
